createdAt,value
2017-09-30T00:00:58.386Z,11.19
2017-09-30T00:03:24.696Z,11.05
2017-09-30T00:05:51.039Z,11.12
2017-09-30T00:08:18.726Z,11.15
2017-09-30T00:10:45.153Z,11.13
2017-09-30T00:13:11.561Z,11.19
2017-09-30T00:15:38.301Z,11.29
2017-09-30T00:18:04.949Z,11.16
2017-09-30T00:20:31.291Z,11.29
2017-09-30T00:22:57.606Z,11.39
2017-09-30T00:25:23.958Z,11.43
2017-09-30T00:27:50.274Z,11.41
2017-09-30T00:30:16.738Z,11.35
2017-09-30T00:32:43.158Z,11.39
2017-09-30T00:35:09.583Z,11.42
2017-09-30T00:37:35.916Z,11.51
2017-09-30T00:40:02.234Z,11.57
2017-09-30T00:42:28.873Z,11.59
2017-09-30T00:44:55.208Z,11.46
2017-09-30T00:47:21.555Z,11.29
2017-09-30T00:49:47.789Z,11.27
2017-09-30T00:52:14.111Z,11.21
2017-09-30T00:54:40.438Z,11.21
2017-09-30T00:57:06.770Z,11.04
2017-09-30T00:59:33.118Z,11.17
2017-09-30T01:01:59.447Z,11.24
2017-09-30T01:04:25.868Z,11.27
2017-09-30T01:06:53.128Z,11.35
2017-09-30T01:09:19.335Z,11.50
2017-09-30T01:11:45.663Z,11.50
2017-09-30T01:14:11.914Z,11.52
2017-09-30T01:16:38.571Z,11.45
2017-09-30T01:19:05.095Z,11.57
2017-09-30T01:21:31.348Z,11.61
2017-09-30T01:23:57.660Z,11.68
2017-09-30T01:26:24.177Z,11.54
2017-09-30T01:28:50.413Z,11.44
2017-09-30T01:31:16.770Z,11.52
2017-09-30T01:33:43.380Z,11.53
2017-09-30T01:36:09.630Z,11.55
2017-09-30T01:38:35.960Z,11.45
2017-09-30T01:41:02.377Z,11.46
2017-09-30T01:43:28.717Z,11.55
2017-09-30T01:45:55.054Z,11.60
2017-09-30T01:48:21.492Z,11.59
2017-09-30T01:50:47.922Z,11.59
2017-09-30T01:53:14.350Z,11.57
2017-09-30T01:55:40.690Z,11.62
2017-09-30T01:58:07.021Z,11.54
2017-09-30T02:00:33.464Z,11.50
2017-09-30T02:02:59.787Z,11.56
2017-09-30T02:05:26.219Z,11.69
2017-09-30T02:07:53.080Z,11.66
2017-09-30T02:10:19.311Z,11.58
2017-09-30T02:12:45.522Z,11.51
2017-09-30T02:15:11.867Z,11.46
2017-09-30T02:17:38.079Z,11.43
2017-09-30T02:20:04.438Z,11.40
2017-09-30T02:22:30.852Z,11.46
2017-09-30T02:24:57.297Z,11.41
2017-09-30T02:27:23.665Z,11.42
2017-09-30T02:29:49.953Z,11.42
2017-09-30T02:32:16.390Z,11.40
2017-09-30T02:34:42.718Z,11.41
2017-09-30T02:37:09.250Z,11.43
2017-09-30T02:39:35.597Z,11.39
2017-09-30T02:42:01.924Z,11.31
2017-09-30T02:44:28.357Z,11.30
2017-09-30T02:46:54.580Z,11.27
2017-09-30T02:49:20.813Z,11.22
2017-09-30T02:51:47.353Z,11.24
2017-09-30T02:54:13.784Z,11.23
2017-09-30T02:56:40.122Z,11.21
2017-09-30T02:59:06.566Z,11.21
2017-09-30T03:01:32.883Z,11.21
2017-09-30T03:03:59.204Z,11.14
2017-09-30T03:06:25.469Z,11.13
2017-09-30T03:08:51.888Z,11.16
2017-09-30T03:11:18.306Z,11.19
2017-09-30T03:13:44.657Z,11.13
2017-09-30T03:16:10.894Z,11.09
2017-09-30T03:18:37.200Z,11.07
2017-09-30T03:21:03.548Z,11.02
2017-09-30T03:23:30.197Z,10.92
2017-09-30T03:25:56.507Z,10.92
2017-09-30T03:28:22.832Z,10.88
2017-09-30T03:30:49.071Z,10.91
2017-09-30T03:33:15.525Z,10.88
2017-09-30T03:35:41.937Z,10.83
2017-09-30T03:38:08.170Z,10.79
2017-09-30T03:40:34.408Z,10.77
2017-09-30T03:43:00.747Z,10.71
2017-09-30T03:45:27.173Z,10.60
2017-09-30T03:47:53.600Z,10.61
2017-09-30T03:50:19.948Z,10.66
2017-09-30T03:52:46.274Z,10.63
2017-09-30T03:55:12.713Z,10.64
2017-09-30T03:57:39.133Z,10.64
2017-09-30T04:00:05.479Z,10.67
2017-09-30T04:02:31.895Z,10.69
2017-09-30T04:04:58.240Z,10.70
2017-09-30T04:07:24.577Z,10.69
2017-09-30T04:09:50.903Z,10.68
2017-09-30T04:12:17.339Z,10.63
2017-09-30T04:14:43.896Z,10.63
2017-09-30T04:17:10.301Z,10.64
2017-09-30T04:19:36.592Z,10.64
2017-09-30T04:22:02.919Z,10.58
2017-09-30T04:24:29.232Z,10.61
2017-09-30T04:26:55.737Z,10.58
2017-09-30T04:29:22.165Z,10.68
2017-09-30T04:31:48.734Z,10.57
2017-09-30T04:34:15.251Z,10.62
2017-09-30T04:36:41.679Z,10.60
2017-09-30T04:39:07.916Z,10.59
2017-09-30T04:41:34.350Z,10.61
2017-09-30T04:44:00.666Z,10.55
2017-09-30T04:46:27.534Z,10.56
2017-09-30T04:48:53.952Z,10.57
2017-09-30T04:51:20.299Z,10.53
2017-09-30T04:53:46.617Z,10.46
2017-09-30T04:56:12.933Z,10.48
2017-09-30T04:58:39.380Z,10.52
2017-09-30T05:01:05.717Z,10.60
2017-09-30T05:03:31.937Z,10.60
2017-09-30T05:05:58.289Z,10.54
2017-09-30T05:08:24.723Z,10.55
2017-09-30T05:10:51.067Z,10.54
2017-09-30T05:13:17.270Z,10.67
2017-09-30T05:15:43.518Z,10.68
2017-09-30T05:18:09.720Z,10.80
2017-09-30T05:20:35.931Z,10.86
2017-09-30T05:23:02.196Z,10.79
2017-09-30T05:25:28.543Z,10.78
2017-09-30T05:27:55.263Z,10.84
2017-09-30T05:30:21.699Z,10.82
2017-09-30T05:32:47.939Z,10.71
2017-09-30T05:35:14.252Z,10.71
2017-09-30T05:37:40.595Z,10.79
2017-09-30T05:40:07.553Z,10.86
2017-09-30T05:42:33.784Z,10.95
2017-09-30T05:45:00.244Z,10.91
2017-09-30T05:47:26.570Z,10.94
2017-09-30T05:49:52.904Z,10.94
2017-09-30T05:52:19.315Z,11.07
2017-09-30T05:54:45.821Z,10.98
2017-09-30T05:57:12.169Z,10.90
2017-09-30T05:59:38.552Z,11.00
2017-09-30T06:02:05.154Z,11.02
2017-09-30T06:04:32.166Z,11.07
2017-09-30T06:06:59.385Z,11.07
2017-09-30T06:09:26.033Z,11.15
2017-09-30T06:11:52.319Z,11.12
2017-09-30T06:14:18.650Z,11.18
2017-09-30T06:16:45.000Z,11.33
2017-09-30T06:19:11.312Z,11.37
2017-09-30T06:21:37.547Z,11.55
2017-09-30T06:24:03.886Z,11.64
2017-09-30T06:26:30.318Z,11.71
2017-09-30T06:28:57.059Z,11.65
2017-09-30T06:31:23.493Z,11.72
2017-09-30T06:33:50.168Z,11.69
2017-09-30T06:36:16.770Z,11.66
2017-09-30T06:38:43.758Z,11.51
2017-09-30T06:41:10.053Z,11.45
2017-09-30T06:43:36.685Z,11.48
2017-09-30T06:46:03.014Z,11.64
2017-09-30T06:48:29.928Z,11.77
2017-09-30T06:50:56.724Z,11.78
2017-09-30T06:53:23.133Z,11.85
2017-09-30T06:55:49.578Z,12.05
2017-09-30T06:58:16.018Z,12.18
2017-09-30T07:00:42.391Z,12.44
2017-09-30T07:03:08.674Z,12.38
2017-09-30T07:05:35.512Z,12.62
2017-09-30T07:08:01.897Z,12.75
2017-09-30T07:10:28.307Z,12.84
2017-09-30T07:12:54.717Z,12.84
2017-09-30T07:15:21.177Z,12.85
2017-09-30T07:17:47.483Z,12.94
2017-09-30T07:20:13.822Z,13.17
2017-09-30T07:22:40.271Z,13.06
2017-09-30T07:25:06.602Z,13.07
2017-09-30T07:27:32.912Z,13.11
2017-09-30T07:29:59.562Z,13.16
2017-09-30T07:32:26.010Z,13.16
2017-09-30T07:34:52.340Z,13.24
2017-09-30T07:37:18.770Z,13.03
2017-09-30T07:39:45.395Z,12.98
2017-09-30T07:42:11.837Z,13.03
2017-09-30T07:44:38.151Z,13.02
2017-09-30T07:47:04.593Z,13.03
2017-09-30T07:49:31.048Z,13.08
2017-09-30T07:51:57.258Z,13.29
2017-09-30T07:54:23.696Z,13.59
2017-09-30T07:56:50.137Z,14.06
2017-09-30T07:59:16.767Z,14.28
2017-09-30T08:01:43.971Z,14.38
2017-09-30T08:04:12.158Z,14.32
2017-09-30T08:06:38.440Z,14.55
2017-09-30T08:09:04.962Z,14.49
2017-09-30T08:11:31.547Z,14.50
2017-09-30T08:13:58.243Z,14.38
2017-09-30T08:16:24.922Z,14.08
2017-09-30T08:18:51.276Z,14.06
2017-09-30T08:21:17.574Z,14.24
2017-09-30T08:23:43.988Z,14.28
2017-09-30T08:26:10.440Z,14.06
2017-09-30T08:28:36.632Z,14.11
2017-09-30T08:31:03.077Z,14.26
2017-09-30T08:33:29.408Z,14.35
2017-09-30T08:35:55.744Z,14.32
2017-09-30T08:38:22.005Z,14.56
2017-09-30T08:40:48.411Z,14.79
2017-09-30T08:43:14.817Z,14.88
2017-09-30T08:45:41.004Z,14.96
2017-09-30T08:48:07.185Z,15.05
2017-09-30T08:50:33.437Z,15.46
2017-09-30T08:52:59.890Z,15.65
2017-09-30T08:55:26.194Z,15.18
2017-09-30T08:57:53.574Z,15.26
2017-09-30T09:00:19.890Z,15.50
2017-09-30T09:02:46.424Z,15.72
2017-09-30T09:05:12.659Z,15.66
2017-09-30T09:07:38.947Z,15.27
2017-09-30T09:10:05.204Z,15.14
2017-09-30T09:12:31.738Z,15.10
2017-09-30T09:14:58.201Z,15.04
2017-09-30T09:17:24.871Z,15.14
2017-09-30T09:19:51.152Z,15.23
2017-09-30T09:22:17.595Z,15.75
2017-09-30T09:24:44.447Z,15.96
2017-09-30T09:27:11.304Z,16.12
2017-09-30T09:29:37.934Z,16.27
2017-09-30T09:32:04.569Z,16.06
2017-09-30T09:34:31.064Z,15.97
2017-09-30T09:36:58.748Z,15.91
2017-09-30T09:39:24.997Z,15.78
2017-09-30T09:41:51.322Z,15.44
2017-09-30T09:44:17.758Z,15.44
2017-09-30T09:46:44.023Z,15.70
2017-09-30T09:49:10.726Z,16.06
2017-09-30T09:51:37.270Z,16.00
2017-09-30T09:54:03.893Z,15.91
2017-09-30T09:56:30.342Z,15.73
2017-09-30T09:58:56.660Z,15.88
2017-09-30T10:01:22.919Z,15.98
2017-09-30T10:03:49.151Z,15.80
2017-09-30T10:06:15.562Z,15.94
2017-09-30T10:08:42.053Z,16.13
2017-09-30T10:11:08.344Z,16.18
2017-09-30T10:13:34.876Z,16.47
2017-09-30T10:16:01.315Z,16.62
2017-09-30T10:18:27.792Z,16.53
2017-09-30T10:20:54.177Z,16.39
2017-09-30T10:23:20.532Z,16.42
2017-09-30T10:25:46.930Z,16.30
2017-09-30T10:28:13.838Z,16.33
2017-09-30T10:30:40.117Z,16.38
2017-09-30T10:33:06.352Z,16.22
2017-09-30T10:35:32.727Z,16.60
2017-09-30T10:37:59.286Z,16.74
2017-09-30T10:40:25.540Z,16.96
2017-09-30T10:42:51.973Z,17.45
2017-09-30T10:45:18.446Z,17.44
2017-09-30T10:47:45.157Z,17.49
2017-09-30T10:50:11.475Z,17.96
2017-09-30T10:52:38.090Z,17.79
2017-09-30T10:55:04.365Z,17.43
2017-09-30T10:57:30.694Z,18.28
2017-09-30T10:59:56.930Z,18.37
2017-09-30T11:02:23.356Z,18.74
2017-09-30T11:04:49.594Z,18.57
2017-09-30T11:07:16.256Z,18.37
2017-09-30T11:09:42.711Z,18.25
2017-09-30T11:12:09.510Z,17.58
2017-09-30T11:14:35.986Z,17.63
2017-09-30T11:17:02.367Z,17.88
2017-09-30T11:19:28.595Z,17.61
2017-09-30T11:21:54.912Z,17.26
2017-09-30T11:24:21.576Z,17.06
2017-09-30T11:26:48.214Z,16.85
2017-09-30T11:29:14.552Z,16.89
2017-09-30T11:31:41.179Z,16.75
2017-09-30T11:34:07.719Z,16.46
2017-09-30T11:36:34.144Z,16.37
2017-09-30T11:39:00.387Z,16.27
2017-09-30T11:41:26.806Z,16.27
2017-09-30T11:43:53.137Z,16.22
2017-09-30T11:46:19.611Z,16.15
2017-09-30T11:48:46.308Z,15.94
2017-09-30T11:51:12.674Z,16.10
2017-09-30T11:53:38.980Z,16.20
2017-09-30T11:56:05.237Z,16.14
2017-09-30T11:58:31.688Z,16.04
2017-09-30T12:00:58.124Z,16.13
2017-09-30T12:03:24.830Z,16.10
2017-09-30T12:05:51.065Z,15.90
2017-09-30T12:08:17.507Z,15.84
2017-09-30T12:10:43.844Z,15.99
2017-09-30T12:13:10.305Z,16.24
2017-09-30T12:15:36.582Z,16.29
2017-09-30T12:18:03.006Z,16.27
2017-09-30T12:20:29.673Z,16.27
2017-09-30T12:22:55.907Z,16.49
2017-09-30T12:25:22.260Z,16.62
2017-09-30T12:27:48.615Z,16.73
2017-09-30T12:30:15.336Z,16.85
2017-09-30T12:32:41.531Z,16.81
2017-09-30T12:35:08.153Z,16.44
2017-09-30T12:37:34.500Z,16.31
2017-09-30T12:40:00.873Z,16.11
2017-09-30T12:42:27.045Z,15.92
2017-09-30T12:44:53.435Z,15.91
2017-09-30T12:47:19.784Z,15.94
2017-09-30T12:49:46.174Z,15.96
2017-09-30T12:52:12.836Z,15.85
2017-09-30T12:54:39.578Z,15.97
2017-09-30T12:57:05.891Z,15.89
2017-09-30T12:59:32.780Z,15.82
2017-09-30T13:01:59.576Z,15.81
2017-09-30T13:04:25.822Z,15.50
2017-09-30T13:06:52.785Z,15.47
2017-09-30T13:09:19.125Z,15.37
2017-09-30T13:11:45.404Z,15.23
2017-09-30T13:14:11.768Z,15.22
2017-09-30T13:16:38.095Z,14.98
2017-09-30T13:19:05.011Z,14.83
2017-09-30T13:21:31.937Z,14.71
2017-09-30T13:23:58.370Z,14.73
2017-09-30T13:26:24.702Z,14.63
2017-09-30T13:28:51.040Z,14.32
2017-09-30T13:31:17.447Z,14.16
2017-09-30T13:33:43.816Z,14.13
2017-09-30T13:36:10.127Z,14.22
2017-09-30T13:38:37.097Z,14.26
2017-09-30T13:41:03.641Z,14.01
2017-09-30T13:43:30.191Z,13.80
2017-09-30T13:45:56.887Z,13.55
2017-09-30T13:48:23.145Z,13.33
2017-09-30T13:50:49.570Z,13.26
2017-09-30T13:53:15.732Z,13.14
2017-09-30T13:55:42.220Z,13.05
2017-09-30T13:58:09.485Z,12.98
2017-09-30T14:00:35.794Z,12.90
2017-09-30T14:03:02.794Z,12.87
2017-09-30T14:05:29.098Z,12.89
2017-09-30T14:07:55.362Z,12.83
2017-09-30T14:10:21.586Z,12.67
2017-09-30T14:12:47.905Z,12.68
2017-09-30T14:15:14.162Z,12.62
2017-09-30T14:17:40.486Z,12.60
2017-09-30T14:20:06.848Z,12.52
2017-09-30T14:22:33.236Z,12.54
2017-09-30T14:24:59.493Z,12.52
2017-09-30T14:27:26.234Z,12.58
2017-09-30T14:29:52.577Z,12.71
2017-09-30T14:32:18.794Z,12.75
2017-09-30T14:34:44.986Z,12.68
2017-09-30T14:37:11.211Z,12.63
2017-09-30T14:39:37.526Z,12.59
2017-09-30T14:42:03.888Z,12.55
2017-09-30T14:44:30.127Z,12.51
2017-09-30T14:46:56.520Z,12.49
2017-09-30T14:49:22.886Z,12.46
2017-09-30T14:51:49.427Z,12.27
2017-09-30T14:54:15.641Z,12.24
2017-09-30T14:56:42.394Z,12.22
2017-09-30T14:59:08.743Z,12.25
2017-09-30T15:01:35.198Z,12.22
2017-09-30T15:04:01.600Z,12.18
2017-09-30T15:06:27.864Z,12.17
2017-09-30T15:08:54.324Z,12.22
2017-09-30T15:11:20.730Z,12.21
2017-09-30T15:13:47.151Z,12.19
2017-09-30T15:16:13.586Z,12.08
2017-09-30T15:18:40.003Z,12.02
2017-09-30T15:21:06.356Z,12.10
2017-09-30T15:23:32.788Z,12.16
2017-09-30T15:25:59.291Z,12.18
2017-09-30T15:28:26.133Z,12.14
2017-09-30T15:30:52.376Z,12.10
2017-09-30T15:33:19.130Z,12.07
2017-09-30T15:35:45.353Z,12.06
2017-09-30T15:38:11.689Z,12.03
2017-09-30T15:40:38.361Z,12.02
2017-09-30T15:43:04.754Z,11.97
2017-09-30T15:45:31.257Z,11.89
2017-09-30T15:47:57.509Z,11.86
2017-09-30T15:50:23.954Z,11.79
2017-09-30T15:52:50.279Z,11.74
2017-09-30T15:55:16.715Z,11.72
2017-09-30T15:57:43.045Z,11.77
2017-09-30T16:00:09.915Z,11.73
2017-09-30T16:02:36.228Z,11.67
2017-09-30T16:05:02.870Z,11.62
2017-09-30T16:07:29.183Z,11.65
2017-09-30T16:09:55.559Z,11.66
2017-09-30T16:12:21.984Z,11.76
2017-09-30T16:14:48.389Z,11.77
2017-09-30T16:17:14.622Z,11.71
2017-09-30T16:19:41.182Z,11.69
2017-09-30T16:22:07.396Z,11.64
2017-09-30T16:24:33.723Z,11.57
2017-09-30T16:27:00.155Z,11.61
2017-09-30T16:29:26.388Z,11.57
2017-09-30T16:31:53.027Z,11.59
2017-09-30T16:34:19.344Z,11.59
2017-09-30T16:36:45.499Z,11.53
2017-09-30T16:39:11.816Z,11.56
2017-09-30T16:41:38.351Z,11.55
2017-09-30T16:44:04.578Z,11.42
2017-09-30T16:46:30.842Z,11.49
2017-09-30T16:48:57.275Z,11.50
2017-09-30T16:51:23.700Z,11.49
2017-09-30T16:53:49.911Z,11.51
2017-09-30T16:56:16.302Z,11.43
2017-09-30T16:58:42.586Z,11.35
2017-09-30T17:01:08.910Z,11.34
2017-09-30T17:03:35.348Z,11.39
2017-09-30T17:06:01.760Z,11.46
2017-09-30T17:08:27.943Z,11.44
2017-09-30T17:10:54.223Z,11.36
2017-09-30T17:13:20.464Z,11.19
2017-09-30T17:15:46.770Z,10.97
2017-09-30T17:18:13.349Z,10.93
2017-09-30T17:20:39.668Z,10.88
2017-09-30T17:23:06.000Z,10.91
2017-09-30T17:25:32.359Z,11.02
2017-09-30T17:27:58.559Z,11.07
2017-09-30T17:30:24.791Z,11.01
2017-09-30T17:32:51.423Z,10.97
2017-09-30T17:35:17.711Z,10.89
2017-09-30T17:37:44.137Z,10.89
2017-09-30T17:40:10.517Z,10.85
2017-09-30T17:42:36.779Z,10.88
2017-09-30T17:45:03.192Z,10.85
2017-09-30T17:47:29.435Z,10.95
2017-09-30T17:49:55.878Z,10.78
2017-09-30T17:52:22.346Z,10.71
2017-09-30T17:54:48.739Z,10.76
2017-09-30T17:57:15.281Z,10.82
2017-09-30T17:59:41.717Z,10.80
2017-09-30T18:02:08.158Z,10.78
2017-09-30T18:04:34.502Z,10.80
2017-09-30T18:07:00.911Z,10.78
2017-09-30T18:09:27.175Z,10.75
2017-09-30T18:11:53.697Z,10.71
2017-09-30T18:14:20.427Z,10.68
2017-09-30T18:16:47.684Z,10.68
2017-09-30T18:19:14.410Z,10.70
2017-09-30T18:21:40.957Z,10.65
2017-09-30T18:24:07.301Z,10.67
2017-09-30T18:26:33.543Z,10.69
2017-09-30T18:29:00.103Z,10.62
2017-09-30T18:31:27.028Z,10.63
2017-09-30T18:33:53.351Z,10.61
2017-09-30T18:36:19.870Z,10.68
2017-09-30T18:38:47.033Z,10.71
2017-09-30T18:41:13.350Z,10.69
2017-09-30T18:43:39.876Z,10.72
2017-09-30T18:46:06.132Z,10.64
2017-09-30T18:48:33.190Z,10.68
2017-09-30T18:50:59.620Z,10.76
2017-09-30T18:53:25.980Z,10.74
2017-09-30T18:55:52.285Z,10.68
2017-09-30T18:58:18.625Z,10.76
2017-09-30T19:00:44.865Z,10.74
2017-09-30T19:03:11.282Z,10.73
2017-09-30T19:05:37.446Z,10.73
2017-09-30T19:08:03.666Z,10.80
2017-09-30T19:10:29.934Z,10.82
2017-09-30T19:12:56.578Z,10.79
2017-09-30T19:15:22.959Z,10.80
2017-09-30T19:17:49.345Z,10.86
2017-09-30T19:20:15.593Z,10.72
2017-09-30T19:22:42.053Z,10.73
2017-09-30T19:25:08.341Z,10.83
2017-09-30T19:27:35.153Z,10.92
2017-09-30T19:30:01.517Z,10.82
2017-09-30T19:32:28.266Z,10.98
2017-09-30T19:34:54.588Z,10.98
2017-09-30T19:37:20.871Z,10.89
2017-09-30T19:39:47.155Z,10.66
2017-09-30T19:42:14.032Z,10.69
2017-09-30T19:44:40.235Z,10.92
2017-09-30T19:47:06.436Z,10.95
2017-09-30T19:49:32.701Z,10.98
2017-09-30T19:51:58.887Z,10.88
2017-09-30T19:54:25.152Z,10.94
2017-09-30T19:56:51.393Z,10.83
2017-09-30T19:59:17.834Z,10.86
2017-09-30T20:01:44.038Z,10.94
2017-09-30T20:04:10.292Z,11.01
2017-09-30T20:06:36.483Z,10.96
2017-09-30T20:09:02.844Z,11.04
2017-09-30T20:11:29.188Z,11.19
2017-09-30T20:13:55.407Z,11.18
2017-09-30T20:16:21.594Z,11.17
2017-09-30T20:18:47.911Z,11.17
2017-09-30T20:21:14.328Z,11.10
2017-09-30T20:23:40.730Z,11.16
2017-09-30T20:26:06.953Z,11.17
2017-09-30T20:28:33.591Z,11.10
2017-09-30T20:30:59.911Z,10.99
2017-09-30T20:33:26.686Z,10.97
2017-09-30T20:35:53.127Z,10.84
2017-09-30T20:38:19.662Z,10.88
2017-09-30T20:40:45.989Z,10.99
2017-09-30T20:43:12.201Z,11.00
2017-09-30T20:45:38.535Z,10.99
2017-09-30T20:48:04.761Z,10.99
2017-09-30T20:50:31.097Z,10.98
2017-09-30T20:52:57.636Z,11.07
2017-09-30T20:55:24.168Z,11.11
2017-09-30T20:57:50.419Z,11.16
2017-09-30T21:00:16.693Z,11.06
2017-09-30T21:02:43.056Z,10.98
2017-09-30T21:05:09.398Z,10.99
2017-09-30T21:07:35.818Z,10.99
2017-09-30T21:10:02.481Z,11.00
2017-09-30T21:12:29.097Z,10.92
2017-09-30T21:14:55.436Z,10.89
2017-09-30T21:17:21.895Z,10.90
2017-09-30T21:19:48.220Z,10.94
2017-09-30T21:22:14.444Z,10.88
2017-09-30T21:24:40.878Z,10.81
2017-09-30T21:27:07.214Z,10.81
2017-09-30T21:29:33.420Z,10.87
2017-09-30T21:31:59.980Z,10.89
2017-09-30T21:34:26.404Z,10.84
2017-09-30T21:36:53.137Z,10.84
2017-09-30T21:39:19.313Z,10.86
2017-09-30T21:41:46.004Z,10.84
2017-09-30T21:44:12.352Z,10.87
2017-09-30T21:46:38.685Z,10.89
2017-09-30T21:49:05.223Z,10.85
2017-09-30T21:51:31.644Z,10.92
2017-09-30T21:53:57.867Z,10.97
2017-09-30T21:56:24.208Z,10.93
2017-09-30T21:58:50.532Z,10.80
2017-09-30T22:01:16.768Z,10.90
2017-09-30T22:03:42.991Z,10.83
2017-09-30T22:06:09.537Z,10.77
2017-09-30T22:08:36.594Z,10.84
2017-09-30T22:11:02.908Z,10.89
2017-09-30T22:13:29.564Z,10.96
2017-09-30T22:15:56.083Z,11.07
2017-09-30T22:18:22.323Z,11.12
2017-09-30T22:20:48.650Z,11.07
2017-09-30T22:23:15.093Z,10.94
2017-09-30T22:25:41.435Z,10.92
2017-09-30T22:28:07.861Z,10.81
2017-09-30T22:30:34.190Z,10.89
2017-09-30T22:33:00.515Z,10.88
2017-09-30T22:35:26.844Z,10.97
2017-09-30T22:37:53.286Z,10.99
2017-09-30T22:40:19.514Z,10.96
2017-09-30T22:42:45.846Z,10.85
2017-09-30T22:45:12.187Z,10.88
2017-09-30T22:47:38.502Z,10.90
2017-09-30T22:50:04.848Z,10.89
2017-09-30T22:52:31.575Z,10.87
2017-09-30T22:54:57.918Z,10.98
2017-09-30T22:57:24.231Z,10.99
2017-09-30T22:59:50.465Z,11.05
2017-09-30T23:02:16.924Z,11.10
2017-09-30T23:04:43.462Z,11.11
2017-09-30T23:07:09.888Z,11.04
2017-09-30T23:09:36.429Z,10.98
2017-09-30T23:12:02.877Z,10.90
2017-09-30T23:14:29.085Z,10.85
2017-09-30T23:16:55.631Z,10.86
2017-09-30T23:19:21.953Z,10.79
2017-09-30T23:21:48.193Z,10.78
2017-09-30T23:24:14.534Z,10.84
2017-09-30T23:26:40.861Z,10.86
2017-09-30T23:29:07.290Z,10.82
2017-09-30T23:31:33.615Z,10.75
2017-09-30T23:33:59.950Z,10.60
2017-09-30T23:36:26.262Z,10.58
2017-09-30T23:38:52.713Z,10.66
2017-09-30T23:41:19.153Z,10.68
2017-09-30T23:43:45.461Z,10.64
2017-09-30T23:46:12.127Z,10.77
2017-09-30T23:48:38.552Z,10.87
2017-09-30T23:51:04.893Z,10.92
2017-09-30T23:53:31.229Z,10.76
2017-09-30T23:55:57.545Z,10.79
2017-09-30T23:58:23.756Z,10.72
